Time;durP1;ratioP1;P1;durP2;ratioP2;P2;SDS_P1;SDS_P2;PMS_P1;PMS_P2;Temp;Humidity;BMP_temperature;BMP_pressure;BME280_temperature;BME280_humidity;BME280_pressure;Samples;Min_cycle;Max_cycle;Signal;HPM_P1;HPM_P2
2022/10/14 00:01:07;;;;;;;37.00;24.52;;;13.20;99.90;;;;;;5025814;28;20100;-78
2022/10/14 00:03:34;;;;;;;35.75;22.08;;;13.20;99.90;;;;;;4998833;28;20030;-75
2022/10/14 00:06:05;;;;;;;36.42;22.45;;;13.20;99.90;;;;;;5037236;28;20117;-77
2022/10/14 00:08:30;;;;;;;34.75;22.13;;;13.20;99.90;;;;;;5014793;28;20049;-76
2022/10/14 00:10:56;;;;;;;40.63;23.92;;;13.20;99.90;;;;;;5033048;28;20083;-76
2022/10/14 00:13:22;;;;;;;37.45;23.40;;;13.20;99.90;;;;;;4998918;28;20390;-75
2022/10/14 00:15:47;;;;;;;39.42;24.00;;;13.20;99.90;;;;;;5027311;28;20026;-74
2022/10/14 00:18:13;;;;;;;36.08;24.63;;;13.20;99.90;;;;;;5033872;28;20040;-76
2022/10/14 00:20:39;;;;;;;38.75;25.75;;;13.20;99.90;;;;;;5015057;28;20032;-75
2022/10/14 00:23:04;;;;;;;36.50;23.90;;;13.10;99.90;;;;;;5032242;28;20046;-75
2022/10/14 00:25:30;;;;;;;39.97;23.70;;;13.20;99.90;;;;;;5025088;28;20018;-75
2022/10/14 00:27:56;;;;;;;34.55;23.10;;;13.20;99.90;;;;;;5012214;28;20025;-75
2022/10/14 00:30:21;;;;;;;36.38;24.88;;;13.20;99.90;;;;;;5012319;28;20032;-77
2022/10/14 00:32:47;;;;;;;38.03;23.25;;;13.10;99.90;;;;;;5049072;28;20021;-73
2022/10/14 00:35:13;;;;;;;39.42;24.90;;;13.20;99.90;;;;;;5028465;28;20534;-75
2022/10/14 00:37:39;;;;;;;44.70;27.92;;;13.20;99.90;;;;;;5025160;28;20498;-74
2022/10/14 00:40:05;;;;;;;39.33;24.15;;;13.20;99.90;;;;;;5023680;28;20096;-74
2022/10/14 00:42:34;;;;;;;46.53;26.92;;;13.20;99.90;;;;;;5016325;28;20056;-76
2022/10/14 00:45:05;;;;;;;42.85;24.67;;;13.20;99.90;;;;;;5011280;28;20587;-76
2022/10/14 00:47:31;;;;;;;42.22;25.27;;;13.20;99.90;;;;;;5027964;28;20108;-74
2022/10/14 00:49:58;;;;;;;48.25;29.90;;;13.20;99.90;;;;;;5040648;28;20085;-75
2022/10/14 00:52:24;;;;;;;42.70;27.85;;;13.20;99.90;;;;;;4998746;28;20022;-75
2022/10/14 00:54:55;;;;;;;44.38;28.13;;;13.20;99.90;;;;;;5032973;28;20036;-75
2022/10/14 00:57:22;;;;;;;42.53;24.92;;;13.20;99.90;;;;;;5009960;28;20128;-76
2022/10/14 00:59:48;;;;;;;40.38;24.88;;;13.20;99.90;;;;;;5019870;28;20037;-75
2022/10/14 01:02:14;;;;;;;43.88;27.23;;;13.20;99.90;;;;;;5044174;28;20112;-76
2022/10/14 01:04:43;;;;;;;46.65;27.38;;;13.20;99.90;;;;;;5026136;28;20083;-75
2022/10/14 01:07:26;;;;;;;45.88;26.70;;;13.20;99.90;;;;;;5018422;28;20033;-76
2022/10/14 01:10:10;;;;;;;40.92;27.17;;;13.20;99.90;;;;;;5028647;28;20076;-75
2022/10/14 01:12:42;;;;;;;41.30;24.13;;;13.20;99.90;;;;;;4996901;28;20488;-76
2022/10/14 01:15:35;;;;;;;46.17;29.55;;;13.20;99.90;;;;;;5016620;28;20053;-75
2022/10/14 01:18:26;;;;;;;50.22;28.45;;;13.20;99.90;;;;;;5015058;28;20024;-76
2022/10/14 01:20:56;;;;;;;42.10;25.87;;;13.10;99.90;;;;;;5033285;28;20441;-76
2022/10/14 01:24:09;;;;;;;47.50;27.55;;;13.20;99.90;;;;;;5013469;28;20033;-76
2022/10/14 01:26:53;;;;;;;45.30;27.08;;;13.20;99.90;;;;;;5014301;28;20377;-76
2022/10/14 01:29:57;;;;;;;43.70;25.58;;;13.20;99.90;;;;;;5033222;28;20036;-75
2022/10/14 01:32:54;;;;;;;45.97;26.35;;;13.20;99.90;;;;;;5000270;28;20037;-77
2022/10/14 01:35:36;;;;;;;48.30;29.15;;;13.20;99.90;;;;;;5041268;28;20263;-75
2022/10/14 01:38:23;;;;;;;44.58;27.00;;;13.20;99.90;;;;;;5021367;28;20037;-76
2022/10/14 01:41:16;;;;;;;46.42;27.63;;;13.20;99.90;;;;;;5015719;28;20040;-75
2022/10/14 01:43:45;;;;;;;42.83;25.38;;;13.20;99.90;;;;;;5011774;28;20038;-76
2022/10/14 01:46:12;;;;;;;41.47;26.17;;;13.20;99.90;;;;;;5000260;28;20130;-76
2022/10/14 01:48:44;;;;;;;43.50;25.83;;;13.20;99.90;;;;;;5022395;28;20033;-76
2022/10/14 01:51:16;;;;;;;41.67;25.65;;;13.20;99.90;;;;;;5022516;28;20100;-76
2022/10/14 01:53:48;;;;;;;38.63;24.75;;;13.20;99.90;;;;;;5021437;28;20029;-76
2022/10/14 01:56:15;;;;;;;39.40;26.15;;;13.20;99.90;;;;;;5012747;28;20021;-75
2022/10/14 01:58:43;;;;;;;42.60;24.63;;;13.20;99.90;;;;;;5012096;28;20045;-75
2022/10/14 02:01:10;;;;;;;40.95;26.38;;;13.20;99.90;;;;;;5027824;28;20025;-76
2022/10/14 02:03:41;;;;;;;40.90;25.38;;;13.20;99.90;;;;;;5029343;28;20038;-75
2022/10/14 02:06:11;;;;;;;45.63;25.88;;;13.20;99.90;;;;;;5015470;28;20037;-76
2022/10/14 02:09:15;;;;;;;42.22;27.38;;;13.20;99.90;;;;;;5001836;28;20036;-76
2022/10/14 02:12:36;;;;;;;37.97;24.65;;;13.20;99.90;;;;;;5039683;28;20029;-76
2022/10/14 02:15:23;;;;;;;43.88;26.77;;;13.20;99.90;;;;;;4982021;28;20041;-75
2022/10/14 02:18:16;;;;;;;42.05;25.20;;;13.20;99.90;;;;;;5012797;28;20071;-77
2022/10/14 02:21:04;;;;;;;43.30;26.10;;;13.20;99.90;;;;;;5012144;28;20029;-76
2022/10/14 02:23:37;;;;;;;39.30;25.08;;;13.20;99.90;;;;;;5029795;28;20033;-75
2022/10/14 02:26:04;;;;;;;45.42;27.30;;;13.20;99.90;;;;;;5011656;28;20037;-75
2022/10/14 02:28:32;;;;;;;44.08;25.00;;;13.10;99.90;;;;;;4996029;28;20067;-75
2022/10/14 02:31:02;;;;;;;43.83;25.23;;;13.10;99.90;;;;;;5034981;28;20105;-75
2022/10/14 02:33:36;;;;;;;46.27;27.67;;;13.10;99.90;;;;;;5029286;28;20030;-75
2022/10/14 02:36:04;;;;;;;43.33;24.92;;;13.10;99.90;;;;;;5011016;28;20041;-75
2022/10/14 02:38:31;;;;;;;42.00;25.25;;;13.20;99.90;;;;;;5012053;28;20485;-74
2022/10/14 02:41:01;;;;;;;41.78;26.90;;;13.10;99.90;;;;;;5030219;28;20079;-75
2022/10/14 02:43:27;;;;;;;42.00;25.08;;;13.20;99.90;;;;;;5028444;28;20087;-76
2022/10/14 02:45:57;;;;;;;42.25;25.40;;;13.10;99.90;;;;;;5035294;28;20105;-76
2022/10/14 02:48:23;;;;;;;40.75;25.05;;;13.20;99.90;;;;;;5031860;28;20051;-75
2022/10/14 02:50:48;;;;;;;43.40;26.38;;;13.20;99.90;;;;;;5012198;28;20018;-75
2022/10/14 02:53:15;;;;;;;45.83;27.73;;;13.20;99.90;;;;;;5015334;28;20041;-75
2022/10/14 02:55:41;;;;;;;44.10;26.25;;;13.20;99.90;;;;;;5034261;28;20184;-75
2022/10/14 02:58:07;;;;;;;42.42;26.52;;;13.10;99.90;;;;;;5017044;28;20029;-77
2022/10/14 03:00:33;;;;;;;43.38;24.88;;;13.20;99.90;;;;;;5016363;28;20039;-75
2022/10/14 03:02:59;;;;;;;41.22;26.48;;;13.20;99.90;;;;;;5032553;28;20183;-76
2022/10/14 03:05:24;;;;;;;48.90;26.75;;;13.20;99.90;;;;;;5031390;28;20116;-76
2022/10/14 03:07:50;;;;;;;44.78;26.17;;;13.10;99.90;;;;;;5010311;28;20120;-75
2022/10/14 03:10:16;;;;;;;46.83;28.05;;;13.20;99.90;;;;;;4996600;28;20535;-75
2022/10/14 03:12:42;;;;;;;45.83;27.90;;;13.10;99.90;;;;;;5012105;28;20070;-75
2022/10/14 03:15:08;;;;;;;50.40;27.92;;;13.20;99.90;;;;;;5032991;28;20092;-75
2022/10/14 03:17:35;;;;;;;46.10;27.42;;;13.10;99.90;;;;;;5024233;28;20120;-75
2022/10/14 03:20:02;;;;;;;46.53;27.08;;;13.20;99.90;;;;;;4996261;28;20108;-77
2022/10/14 03:22:28;;;;;;;48.67;28.05;;;13.20;99.90;;;;;;5031053;28;20065;-75
2022/10/14 03:24:53;;;;;;;47.40;28.05;;;13.20;99.90;;;;;;5011541;28;20741;-75
2022/10/14 03:27:19;;;;;;;45.70;27.13;;;13.20;99.90;;;;;;5012903;28;20041;-75
2022/10/14 03:29:45;;;;;;;46.83;27.98;;;13.20;99.90;;;;;;5033445;28;20038;-74
2022/10/14 03:32:10;;;;;;;42.17;26.67;;;13.10;99.90;;;;;;5033297;28;20053;-75
2022/10/14 03:34:36;;;;;;;44.15;27.65;;;13.20;99.90;;;;;;5015468;28;20025;-74
2022/10/14 03:37:02;;;;;;;48.10;28.80;;;13.10;99.90;;;;;;5015850;28;20453;-75
2022/10/14 03:39:27;;;;;;;48.95;26.55;;;13.10;99.90;;;;;;5032847;28;20511;-75
2022/10/14 03:41:53;;;;;;;48.42;27.33;;;13.10;99.90;;;;;;5033056;28;20068;-75
2022/10/14 03:44:19;;;;;;;50.60;30.13;;;13.20;99.90;;;;;;5056050;23;20049;-77
2022/10/14 03:46:44;;;;;;;45.58;27.08;;;13.20;99.90;;;;;;5025864;28;20441;-77
2022/10/14 03:49:11;;;;;;;47.05;28.98;;;13.10;99.90;;;;;;5039031;28;20488;-77
2022/10/14 03:51:37;;;;;;;50.05;28.40;;;13.10;99.90;;;;;;5039185;28;20037;-77
2022/10/14 03:54:02;;;;;;;45.72;27.95;;;13.20;99.90;;;;;;5038416;28;20034;-77
2022/10/14 03:56:28;;;;;;;50.35;28.35;;;13.20;99.90;;;;;;5056475;28;20032;-77
2022/10/14 03:58:54;;;;;;;50.88;28.35;;;13.20;99.90;;;;;;5037313;28;20028;-77
2022/10/14 04:01:19;;;;;;;47.25;26.75;;;13.10;99.90;;;;;;5057637;28;20025;-77
2022/10/14 04:03:45;;;;;;;50.67;27.67;;;13.10;99.90;;;;;;5038036;28;20525;-77
2022/10/14 04:06:15;;;;;;;49.47;29.40;;;13.10;99.90;;;;;;5055777;28;20025;-77
2022/10/14 04:08:41;;;;;;;55.05;29.50;;;13.20;99.90;;;;;;5037462;28;20059;-77
2022/10/14 04:11:07;;;;;;;52.33;29.35;;;13.10;99.90;;;;;;5065684;28;20119;-76
2022/10/14 04:13:33;;;;;;;55.50;30.17;;;13.10;99.90;;;;;;5067895;28;20029;-77
2022/10/14 04:16:10;;;;;;;52.55;30.75;;;13.10;99.90;;;;;;5037010;28;20441;-77
2022/10/14 04:18:36;;;;;;;56.40;30.40;;;13.10;99.90;;;;;;5040024;28;20501;-77
2022/10/14 04:21:09;;;;;;;52.58;29.15;;;13.10;99.90;;;;;;5038783;28;20119;-77
2022/10/14 04:23:35;;;;;;;59.03;31.27;;;13.10;99.90;;;;;;5047104;28;20036;-77
2022/10/14 04:26:06;;;;;;;56.15;27.83;;;13.10;99.90;;;;;;5075677;28;20039;-77
2022/10/14 04:28:33;;;;;;;53.97;28.52;;;13.20;99.90;;;;;;5068844;28;20671;-77
2022/10/14 04:30:59;;;;;;;48.38;29.20;;;13.20;99.90;;;;;;5042816;28;20648;-78
2022/10/14 04:33:24;;;;;;;48.45;28.13;;;13.20;99.90;;;;;;5062271;28;20080;-77
2022/10/14 04:35:56;;;;;;;51.60;28.63;;;13.10;99.90;;;;;;5060917;28;20047;-77
2022/10/14 04:38:22;;;;;;;51.38;28.55;;;13.10;99.90;;;;;;5054035;28;20104;-77
2022/10/14 04:40:48;;;;;;;53.63;30.40;;;13.10;99.90;;;;;;5055166;28;20112;-77
2022/10/14 04:43:14;;;;;;;55.50;30.02;;;13.10;99.90;;;;;;5040366;28;20076;-76
2022/10/14 04:45:40;;;;;;;49.92;28.50;;;13.10;99.90;;;;;;5038862;28;20045;-77
2022/10/14 04:48:06;;;;;;;51.97;29.08;;;13.10;99.90;;;;;;5058323;28;20052;-77
2022/10/14 04:50:32;;;;;;;50.20;29.85;;;13.10;99.90;;;;;;5024914;28;20091;-77
2022/10/14 04:52:57;;;;;;;54.45;29.85;;;13.10;99.90;;;;;;5044469;28;20032;-76
2022/10/14 04:55:23;;;;;;;53.38;28.27;;;13.20;99.90;;;;;;5077708;28;20119;-77
2022/10/14 04:57:49;;;;;;;54.88;30.88;;;13.20;99.90;;;;;;5085249;28;20023;-75
2022/10/14 05:00:14;;;;;;;54.17;30.60;;;13.20;99.90;;;;;;5060938;28;20016;-74
2022/10/14 05:02:40;;;;;;;51.17;29.15;;;13.10;99.90;;;;;;5077176;28;20020;-75
2022/10/14 05:05:06;;;;;;;55.05;29.75;;;13.20;99.90;;;;;;5065606;28;20037;-74
2022/10/14 05:07:33;;;;;;;57.42;30.90;;;13.20;99.90;;;;;;5084928;28;20024;-75
2022/10/14 05:09:59;;;;;;;55.85;30.02;;;13.20;99.90;;;;;;5056458;28;20041;-77
2022/10/14 05:12:25;;;;;;;56.50;30.27;;;13.20;99.90;;;;;;5043740;28;20035;-76
2022/10/14 05:14:51;;;;;;;51.42;29.13;;;13.20;99.90;;;;;;5064023;28;20025;-76
2022/10/14 05:17:17;;;;;;;56.90;29.90;;;13.20;99.90;;;;;;5053138;28;20024;-76
2022/10/14 05:19:43;;;;;;;56.63;31.90;;;13.20;99.90;;;;;;5054705;28;20028;-77
2022/10/14 05:22:09;;;;;;;59.35;30.98;;;13.20;99.90;;;;;;5064755;28;20566;-76
2022/10/14 05:24:34;;;;;;;60.67;31.42;;;13.20;99.90;;;;;;5022283;28;20061;-76
2022/10/14 05:27:00;;;;;;;65.88;32.63;;;13.20;99.90;;;;;;5049593;28;20032;-77
2022/10/14 05:29:25;;;;;;;61.45;31.63;;;13.20;99.90;;;;;;5052165;28;20408;-77
2022/10/14 05:31:51;;;;;;;64.25;33.05;;;13.20;99.90;;;;;;5048598;28;20466;-77
2022/10/14 05:34:17;;;;;;;68.13;33.88;;;13.20;99.90;;;;;;5047200;28;20393;-76
2022/10/14 05:36:43;;;;;;;60.40;29.27;;;13.20;99.90;;;;;;5042425;28;20044;-76
2022/10/14 05:39:10;;;;;;;69.43;35.28;;;13.30;99.90;;;;;;5064382;28;20025;-77
2022/10/14 05:41:36;;;;;;;66.88;33.97;;;13.30;99.90;;;;;;5058716;28;20033;-75
2022/10/14 05:44:03;;;;;;;76.00;34.97;;;13.30;99.90;;;;;;5051696;28;20060;-74
2022/10/14 05:46:29;;;;;;;67.85;34.42;;;13.20;99.90;;;;;;5082696;28;20039;-76
2022/10/14 05:48:56;;;;;;;65.85;34.22;;;13.20;99.90;;;;;;5057527;28;20272;-77
2022/10/14 05:51:22;;;;;;;65.82;33.83;;;13.20;99.90;;;;;;5051149;28;20673;-78
2022/10/14 05:53:48;;;;;;;67.68;33.88;;;13.20;99.90;;;;;;5049935;28;20079;-77
2022/10/14 05:56:14;;;;;;;69.78;35.40;;;13.20;99.90;;;;;;5038787;28;20463;-77
2022/10/14 05:58:40;;;;;;;65.88;35.72;;;13.20;99.90;;;;;;5031829;28;20063;-77
2022/10/14 06:01:09;;;;;;;66.70;34.85;;;13.20;99.90;;;;;;5066699;28;20033;-76
2022/10/14 06:03:35;;;;;;;71.45;34.83;;;13.20;99.90;;;;;;5037254;28;20044;-77
2022/10/14 06:06:01;;;;;;;63.38;32.85;;;13.20;99.90;;;;;;5056530;28;20029;-77
2022/10/14 06:08:27;;;;;;;60.78;33.33;;;13.20;99.90;;;;;;5073753;28;20020;-77
2022/10/14 06:10:53;;;;;;;64.60;33.78;;;13.20;99.90;;;;;;5027872;28;20054;-78
2022/10/14 06:13:20;;;;;;;61.40;33.15;;;13.20;99.90;;;;;;5042770;28;20032;-77
2022/10/14 06:15:46;;;;;;;63.65;34.30;;;13.20;99.90;;;;;;5060203;28;20111;-77
2022/10/14 06:18:12;;;;;;;66.28;35.85;;;13.20;99.90;;;;;;5042102;28;20518;-77
2022/10/14 06:20:38;;;;;;;71.07;36.17;;;13.20;99.90;;;;;;5026314;28;20463;-77
2022/10/14 06:23:04;;;;;;;68.32;35.80;;;13.20;99.90;;;;;;5065246;28;20083;-77
2022/10/14 06:25:30;;;;;;;64.75;35.40;;;13.20;99.90;;;;;;5041764;28;20029;-77
2022/10/14 06:28:02;;;;;;;61.22;33.17;;;13.20;99.90;;;;;;5040674;28;20032;-77
2022/10/14 06:30:27;;;;;;;62.42;33.95;;;13.20;99.90;;;;;;5020589;28;20497;-78
2022/10/14 06:32:53;;;;;;;59.95;32.15;;;13.20;99.90;;;;;;5065448;28;20112;-77
2022/10/14 06:35:19;;;;;;;64.70;34.00;;;13.20;99.90;;;;;;5046720;28;20021;-77
2022/10/14 06:37:45;;;;;;;60.92;33.92;;;13.20;99.90;;;;;;5046955;28;20384;-77
2022/10/14 06:40:11;;;;;;;66.20;34.85;;;13.20;99.90;;;;;;5063743;28;20063;-77
2022/10/14 06:42:37;;;;;;;62.13;34.60;;;13.20;99.90;;;;;;5064209;28;20033;-77
2022/10/14 06:45:04;;;;;;;56.50;31.92;;;13.20;99.90;;;;;;5039170;28;20118;-77
2022/10/14 06:47:31;;;;;;;63.28;34.38;;;13.20;99.90;;;;;;5043120;28;20408;-77
2022/10/14 06:49:57;;;;;;;60.15;33.85;;;13.20;99.90;;;;;;5028888;28;20400;-77
2022/10/14 06:52:23;;;;;;;73.40;39.85;;;13.20;99.90;;;;;;5070127;28;20056;-77
2022/10/14 06:54:49;;;;;;;59.78;33.15;;;13.30;99.90;;;;;;5043411;28;20059;-77
2022/10/14 06:57:15;;;;;;;58.63;33.38;;;13.30;99.90;;;;;;5063993;28;20076;-77
2022/10/14 06:59:40;;;;;;;61.10;33.38;;;13.30;99.90;;;;;;5060925;28;20060;-77
2022/10/14 07:02:07;;;;;;;61.03;34.03;;;13.30;99.90;;;;;;5056538;28;20029;-77
2022/10/14 07:04:33;;;;;;;59.20;33.15;;;13.30;99.90;;;;;;5023282;28;20122;-76
2022/10/14 07:06:58;;;;;;;55.75;32.70;;;13.30;99.90;;;;;;5045506;28;20111;-77
2022/10/14 07:09:24;;;;;;;55.92;32.03;;;13.30;99.90;;;;;;5052383;28;20029;-77
2022/10/14 07:11:50;;;;;;;66.20;36.88;;;13.30;99.90;;;;;;5048530;28;20048;-77
2022/10/14 07:14:16;;;;;;;65.38;36.55;;;13.40;99.90;;;;;;5063149;28;20586;-77
2022/10/14 07:16:44;;;;;;;57.92;33.55;;;13.40;99.90;;;;;;5048129;28;20033;-77
2022/10/14 07:19:11;;;;;;;57.78;32.53;;;13.40;99.90;;;;;;5044384;28;20032;-77
2022/10/14 07:21:36;;;;;;;59.53;34.03;;;13.40;99.90;;;;;;5064608;28;20057;-77
2022/10/14 07:24:02;;;;;;;62.17;34.72;;;13.40;99.90;;;;;;5046225;28;20052;-77
2022/10/14 07:26:31;;;;;;;62.47;35.78;;;13.50;99.90;;;;;;5066541;28;20353;-78
2022/10/14 07:28:57;;;;;;;52.30;31.70;;;13.50;99.90;;;;;;5040981;28;20036;-77
2022/10/14 07:31:23;;;;;;;54.40;31.92;;;13.50;99.90;;;;;;5066286;28;20095;-77
2022/10/14 07:33:49;;;;;;;59.40;34.67;;;13.60;99.90;;;;;;5062437;28;20028;-79
2022/10/14 07:36:16;;;;;;;65.20;36.67;;;13.50;99.90;;;;;;5049128;28;20440;-77
2022/10/14 07:38:43;;;;;;;72.00;37.33;;;13.60;99.90;;;;;;5068745;28;20083;-77
2022/10/14 07:41:15;;;;;;;55.35;33.05;;;13.60;99.90;;;;;;5062266;28;20068;-77
2022/10/14 07:44:04;;;;;;;65.00;37.30;;;13.60;99.90;;;;;;5063951;28;20037;-76
2022/10/14 07:46:33;;;;;;;56.40;32.97;;;13.60;99.90;;;;;;5044274;28;20057;-76
2022/10/14 07:49:00;;;;;;;59.47;34.10;;;13.60;99.90;;;;;;5063325;28;20090;-77
2022/10/14 07:51:27;;;;;;;66.63;37.92;;;13.70;99.90;;;;;;5044442;28;20021;-76
2022/10/14 07:53:54;;;;;;;57.70;34.95;;;13.60;99.90;;;;;;5045506;28;20381;-76
2022/10/14 07:56:21;;;;;;;56.90;33.60;;;13.70;99.90;;;;;;5046414;28;20435;-77
2022/10/14 07:58:46;;;;;;;63.92;37.30;;;13.80;99.90;;;;;;5047957;28;20063;-77
2022/10/14 08:01:14;;;;;;;63.47;36.47;;;13.80;99.90;;;;;;5062428;28;20395;-77
2022/10/14 08:03:40;;;;;;;55.55;33.50;;;13.90;99.90;;;;;;5071659;28;20052;-77
2022/10/14 08:06:06;;;;;;;58.88;34.88;;;13.90;99.90;;;;;;5061139;28;20052;-77
2022/10/14 08:08:32;;;;;;;60.38;35.38;;;13.90;99.90;;;;;;5051184;28;20048;-76
2022/10/14 08:11:03;;;;;;;61.28;35.47;;;14.00;99.90;;;;;;5049499;28;20109;-77
2022/10/14 08:13:29;;;;;;;60.92;35.53;;;14.00;99.90;;;;;;5047062;28;20412;-77
2022/10/14 08:15:55;;;;;;;56.20;34.63;;;14.00;99.90;;;;;;5064323;28;20021;-76
2022/10/14 08:18:21;;;;;;;44.95;28.88;;;14.00;99.90;;;;;;5026348;28;20036;-76
2022/10/14 08:20:46;;;;;;;46.72;29.40;;;14.10;99.90;;;;;;5033255;28;20095;-76
2022/10/14 08:23:12;;;;;;;44.45;28.77;;;14.00;99.90;;;;;;5043079;28;20104;-77
2022/10/14 08:25:39;;;;;;;47.50;30.05;;;14.10;99.90;;;;;;5043415;28;20021;-77
2022/10/14 08:28:04;;;;;;;55.47;32.40;;;14.00;99.90;;;;;;5044432;28;20543;-78
2022/10/14 08:30:30;;;;;;;46.22;29.02;;;14.00;99.90;;;;;;5041502;28;20116;-77
2022/10/14 08:32:56;;;;;;;45.55;29.10;;;13.90;99.90;;;;;;5042379;28;20017;-78
2022/10/14 08:35:22;;;;;;;48.33;30.77;;;13.90;99.90;;;;;;5042731;28;20648;-78
2022/10/14 08:37:58;;;;;;;48.75;31.38;;;14.00;99.90;;;;;;5061947;28;20033;-78
2022/10/14 08:40:27;;;;;;;47.92;29.17;;;14.10;99.90;;;;;;5048742;28;20025;-78
2022/10/14 08:43:38;;;;;;;54.38;33.10;;;14.20;99.90;;;;;;5059823;28;20032;-77
2022/10/14 08:46:41;;;;;;;53.47;33.08;;;14.30;99.90;;;;;;5055534;28;20053;-77
2022/10/14 08:49:17;;;;;;;46.03;29.83;;;14.30;99.90;;;;;;5033381;28;20033;-77
2022/10/14 08:51:47;;;;;;;44.50;27.88;;;14.30;99.90;;;;;;5052961;28;20024;-76
2022/10/14 08:54:25;;;;;;;47.38;29.58;;;14.30;99.90;;;;;;5064492;28;20029;-77
2022/10/14 08:56:52;;;;;;;48.17;30.48;;;14.30;99.90;;;;;;5063997;28;20035;-77
2022/10/14 08:59:21;;;;;;;48.92;30.13;;;14.30;99.90;;;;;;5061789;28;20040;-77
2022/10/14 09:02:03;;;;;;;52.45;31.42;;;14.40;99.90;;;;;;5062902;28;20028;-78
2022/10/14 09:04:34;;;;;;;50.33;30.10;;;14.50;99.90;;;;;;5050796;28;20039;-77
2022/10/14 09:07:01;;;;;;;40.63;25.65;;;14.40;99.90;;;;;;5062500;28;20407;-77
2022/10/14 09:09:36;;;;;;;44.88;27.95;;;14.40;99.90;;;;;;5051878;28;20032;-77
2022/10/14 09:12:13;;;;;;;36.20;25.10;;;14.40;99.90;;;;;;5058755;28;20039;-77
2022/10/14 09:14:44;;;;;;;39.17;25.02;;;14.40;99.90;;;;;;5043678;28;20017;-77
2022/10/14 09:17:20;;;;;;;42.13;25.38;;;14.50;99.90;;;;;;5052773;28;20024;-76
2022/10/14 09:19:57;;;;;;;46.08;29.35;;;14.60;99.90;;;;;;5059129;28;20031;-77
2022/10/14 09:22:23;;;;;;;44.72;27.42;;;14.60;99.90;;;;;;5071303;28;20036;-77
2022/10/14 09:24:51;;;;;;;41.92;26.48;;;14.60;99.90;;;;;;5056287;28;20029;-77
2022/10/14 09:27:20;;;;;;;45.03;26.73;;;14.50;99.90;;;;;;5039165;28;20120;-77
2022/10/14 09:30:00;;;;;;;47.08;29.92;;;14.50;99.90;;;;;;5038918;28;20052;-76
2022/10/14 09:32:26;;;;;;;58.45;31.40;;;14.40;99.90;;;;;;5038552;28;20025;-76
2022/10/14 09:34:52;;;;;;;45.67;28.67;;;14.30;99.90;;;;;;5059109;28;20032;-75
2022/10/14 09:37:30;;;;;;;47.85;28.65;;;14.30;99.90;;;;;;5066537;28;20040;-76
2022/10/14 09:40:03;;;;;;;47.83;29.08;;;14.40;99.90;;;;;;5052331;28;20404;-77
2022/10/14 09:42:56;;;;;;;46.28;28.52;;;14.40;99.90;;;;;;5052607;28;20021;-76
2022/10/14 09:45:24;;;;;;;41.42;25.73;;;14.40;99.90;;;;;;5052784;28;20032;-76
2022/10/14 09:47:55;;;;;;;43.38;25.58;;;14.60;99.90;;;;;;5061214;28;20052;-78
2022/10/14 09:50:42;;;;;;;42.75;26.95;;;14.90;99.90;;;;;;5039004;28;20061;-78
2022/10/14 09:53:17;;;;;;;41.42;25.48;;;15.00;99.90;;;;;;5042532;28;20219;-77
2022/10/14 09:56:04;;;;;;;37.90;24.40;;;14.90;99.90;;;;;;5061635;28;20448;-79
2022/10/14 09:58:56;;;;;;;42.42;25.20;;;14.90;99.90;;;;;;5039788;28;20115;-78
2022/10/14 10:01:27;;;;;;;39.03;25.73;;;14.90;99.90;;;;;;5057673;28;20098;-78
2022/10/14 10:03:53;;;;;;;;;;;14.90;99.90;;;;;;5041496;28;20036;-78
2022/10/14 10:06:22;;;;;;;40.60;25.02;;;14.90;99.90;;;;;;5042196;28;19944;-76
2022/10/14 10:08:54;;;;;;;40.70;24.75;;;15.00;99.90;;;;;;5039665;28;20567;-78
2022/10/14 10:11:36;;;;;;;36.70;23.35;;;15.10;99.90;;;;;;5068825;28;20020;-77
2022/10/14 10:14:28;;;;;;;36.67;23.42;;;15.10;99.90;;;;;;5037289;28;20059;-77
2022/10/14 10:17:06;;;;;;;40.78;24.75;;;15.00;99.90;;;;;;5049016;28;20044;-76
2022/10/14 10:19:47;;;;;;;39.15;24.65;;;15.00;99.90;;;;;;5017695;28;20037;-77
2022/10/14 10:22:19;;;;;;;34.30;23.13;;;15.00;99.90;;;;;;5056525;28;20047;-77
2022/10/14 10:24:51;;;;;;;35.65;23.20;;;15.10;99.90;;;;;;5037365;28;20037;-77
2022/10/14 10:27:25;;;;;;;33.17;21.35;;;15.20;99.90;;;;;;5055345;28;20439;-77
2022/10/14 10:29:51;;;;;;;34.33;22.55;;;15.30;99.90;;;;;;5069739;28;20035;-77
2022/10/14 10:32:28;;;;;;;37.08;25.02;;;15.20;99.90;;;;;;5072444;28;20032;-77
2022/10/14 10:35:03;;;;;;;37.42;24.15;;;15.20;99.90;;;;;;5045136;28;20488;-76
2022/10/14 10:37:36;;;;;;;38.35;25.13;;;15.00;99.90;;;;;;5055953;28;20036;-77
2022/10/14 10:40:08;;;;;;;36.85;24.30;;;14.90;99.90;;;;;;5066781;28;20040;-77
2022/10/14 10:42:58;;;;;;;32.25;21.10;;;14.90;99.90;;;;;;5021542;28;20029;-77
2022/10/14 10:45:42;;;;;;;33.13;21.67;;;15.00;99.90;;;;;;4988953;28;20458;-77
2022/10/14 10:48:23;;;;;;;31.02;20.75;;;15.10;99.90;;;;;;5038422;28;20036;-77
2022/10/14 10:50:56;;;;;;;36.70;21.70;;;15.50;99.90;;;;;;5054705;28;20092;-77
2022/10/14 10:53:40;;;;;;;31.85;19.52;;;15.80;99.90;;;;;;5037980;28;20020;-76
2022/10/14 10:56:32;;;;;;;27.23;18.70;;;16.10;99.90;;;;;;5057072;28;20128;-77
2022/10/14 10:59:16;;;;;;;29.30;19.30;;;16.00;99.90;;;;;;5054666;28;20029;-77
2022/10/14 11:01:52;;;;;;;33.80;20.42;;;15.80;99.90;;;;;;5035244;28;20025;-76
2022/10/14 11:04:45;;;;;;;29.98;19.67;;;15.70;99.90;;;;;;5038972;28;20033;-77
2022/10/14 11:13:18;;;;;;;32.88;20.10;;;15.30;99.90;;;;;;5038944;28;19963;-77
2022/10/14 11:15:58;;;;;;;29.02;19.88;;;15.20;99.90;;;;;;5049498;28;20029;-77
2022/10/14 11:18:49;;;;;;;32.30;21.50;;;15.20;99.90;;;;;;5040025;28;20025;-81
2022/10/14 11:21:17;;;;;;;27.73;18.58;;;15.00;99.90;;;;;;5021873;28;20365;-77
2022/10/14 11:24:04;;;;;;;30.35;20.63;;;14.90;99.90;;;;;;5057332;28;20032;-78
2022/10/14 11:26:40;;;;;;;30.52;20.60;;;14.80;99.90;;;;;;5036610;28;20405;-78
2022/10/14 11:29:34;;;;;;;32.28;20.33;;;14.80;99.90;;;;;;5042053;28;20025;-78
2022/10/14 11:32:29;;;;;;;31.23;20.50;;;14.70;99.90;;;;;;5038974;28;20029;-78
2022/10/14 11:35:07;;;;;;;36.85;22.58;;;14.70;99.90;;;;;;5046256;28;20473;-78
2022/10/14 11:37:54;;;;;;;30.58;19.40;;;14.60;99.90;;;;;;5037984;28;20056;-76
2022/10/14 11:40:50;;;;;;;27.73;18.67;;;14.60;99.90;;;;;;5040727;28;20059;-78
2022/10/14 11:43:46;;;;;;;29.88;19.38;;;14.70;99.90;;;;;;5056893;28;20029;-76
2022/10/14 11:46:18;;;;;;;35.05;21.65;;;14.70;99.90;;;;;;5055734;28;20052;-76
2022/10/14 11:48:52;;;;;;;29.02;18.88;;;14.80;99.90;;;;;;5057006;28;20047;-76
2022/10/14 11:51:37;;;;;;;34.53;22.40;;;14.90;99.90;;;;;;5024200;28;20021;-76
2022/10/14 11:54:10;;;;;;;35.60;22.20;;;15.00;99.90;;;;;;5048116;28;20527;-77
2022/10/14 11:56:51;;;;;;;32.72;20.70;;;15.00;99.90;;;;;;5047181;28;20029;-77
2022/10/14 11:59:32;;;;;;;;;;;14.90;99.90;;;;;;5048762;28;20393;-76
2022/10/14 12:02:07;;;;;;;35.15;21.70;;;14.90;99.90;;;;;;5044607;28;19963;-77
2022/10/14 12:04:37;;;;;;;32.80;19.55;;;14.90;99.90;;;;;;5057928;28;20059;-76
2022/10/14 12:07:16;;;;;;;26.38;17.75;;;15.00;99.90;;;;;;5031493;28;20063;-78
2022/10/14 12:09:50;;;;;;;30.08;19.85;;;15.00;99.90;;;;;;5029038;28;20067;-77
2022/10/14 12:12:18;;;;;;;32.35;20.60;;;15.00;99.90;;;;;;5047279;28;20029;-76
2022/10/14 12:14:51;;;;;;;31.60;19.58;;;14.80;99.90;;;;;;5041865;28;20096;-77
2022/10/14 12:17:44;;;;;;;31.15;19.20;;;14.80;99.90;;;;;;5062902;28;20029;-77
2022/10/14 12:20:19;;;;;;;28.77;18.63;;;14.90;99.90;;;;;;5043859;28;20028;-76
2022/10/14 12:22:48;;;;;;;24.73;17.02;;;15.00;99.90;;;;;;5063045;28;20099;-78
2022/10/14 12:25:16;;;;;;;25.33;16.60;;;15.10;99.90;;;;;;5045032;28;20024;-77
2022/10/14 12:27:42;;;;;;;23.27;16.88;;;15.20;99.90;;;;;;5050175;28;20036;-77
2022/10/14 12:30:30;;;;;;;28.48;18.90;;;15.30;99.90;;;;;;5046170;28;20092;-77
2022/10/14 12:33:02;;;;;;;24.58;16.42;;;15.30;99.90;;;;;;5038252;28;20033;-77
2022/10/14 12:35:52;;;;;;;26.33;17.23;;;15.30;99.90;;;;;;5062445;28;20079;-77
2022/10/14 12:38:20;;;;;;;27.73;18.00;;;15.20;99.90;;;;;;5028826;28;20056;-77
2022/10/14 12:40:49;;;;;;;21.60;14.93;;;15.10;99.90;;;;;;5062895;28;20063;-77
2022/10/14 12:43:25;;;;;;;17.15;11.15;;;15.00;99.90;;;;;;5040972;28;20033;-77
2022/10/14 12:46:00;;;;;;;24.10;15.93;;;15.00;99.90;;;;;;5027583;28;20029;-78
2022/10/14 12:48:32;;;;;;;23.58;15.02;;;14.90;99.90;;;;;;5042255;28;20029;-77
2022/10/14 12:51:20;;;;;;;21.42;14.30;;;14.90;99.90;;;;;;5045353;28;20113;-77
2022/10/14 12:54:04;;;;;;;20.35;13.90;;;14.80;99.90;;;;;;5046475;28;20024;-78
2022/10/14 12:56:37;;;;;;;20.98;13.95;;;14.80;99.90;;;;;;5045900;28;20057;-77